(°C)
27°
28°
28°
28°
28°
27°
26°
(°C)
25°
27°
27°
28°
29°
30°
29°
ЗЮЗ
ЗЮЗ
ЗЮЗ
З
З
ЗСЗ
З
(км/ч)
14-31
14-28
13-25
11-20
8-15
6-11
4-9
(мм)
0
0
0
0
0
0
0
(%)
40
33
33
21
28
16
10

Высота солнцестояния

/ 43°
sun-icon
UV 4
01:22
23:15
Растущая луна (148°)
19:36
00:58

METAR для 64.6°С 40.72°В (ULAA)

Время Условия Температура/
Точка росы
Ветер Видимость Погода Облачность Давление Изменить Необработанный
VFR 27°C / 22°C variable 0kt >10km - Scattered Clouds 1000ft 1014 No Significant change. Runway 08: Wet or puddles, 51-100% contamination with <1mm, friction coefficient 0.60. ULAA 221100Z 00000MPS 9999 SCT010CB 27/22 Q1014 R08/290060 NOSIG RMK QFE760/1013
VFR 25°C / 22°C variable 2kt >10km - Scattered Clouds 1000ft 1014 No Significant change. Runway 08: Wet or puddles, 51-100% contamination with <1mm, friction coefficient 0.60. ULAA 221030Z VRB01MPS 9999 SCT010CB 25/22 Q1014 R08/290060 NOSIG RMK QFE760/1013
VFR 25°C / 21°C 190º 4kt >10km Thunderstorm Vertical Visibility of 0ft. 1014 No Significant change. Runway 08: Wet or puddles, 51-100% contamination with <1mm, friction coefficient 0.60. ULAA 221000Z 19002MPS 9999 TS SCT013CB 25/21 Q1014 R08/290060 NOSIG RMK QFE760/1013
MVFR 25°C / 20°C variable 2kt >10km Light Thunderstorm Rain 3.00mm precipitation Vertical Visibility of 0ft. 1014 No Significant change. Runway 08: Wet or puddles, 51-100% contamination with <1mm, friction coefficient 0.60. ULAA 220930Z VRB01MPS 9999 -TSRA SCT008 BKN020CB 25/20 Q1014 R08/290060 NOSIG RMK QFE759/1013
IFR 30°C / 21°C 260º variable 220º to 330º 10kt Gust 19kt >10km Light Thunderstorm Rain 3.00mm precipitation Vertical Visibility of 0ft. 1014 No Significant change ULAA 220900Z 26005G10MPS 220V330 9999 -TSRA BKN006CB 30/21 Q1014 R26/CLRD70 NOSIG RMK QBB180 QFE759/1012
VFR 32°C / 21°C 270º variable 240º to 340º 6kt >10km - Scattered Clouds 3000ft 1014 No Significant change ULAA 220830Z 27003MPS 240V340 9999 SCT030 32/21 Q1014 R26/CLRD70 NOSIG RMK QFE759/1012
VFR 31°C / 21°C 270º variable 220º to 310º 6kt >10km - Few Clouds 3000ft 1014 No Significant change ULAA 220800Z 27003MPS 220V310 9999 FEW030 31/21 Q1014 R26/CLRD70 NOSIG RMK QFE759/1012
VFR 31°C / 21°C 260º variable 190º to 320º 4kt >10km - Clouds and Visibility OK 1014 No Significant change ULAA 220730Z 26002MPS 190V320 CAVOK 31/21 Q1014 R08/CLRD70 NOSIG RMK QFE759/1012
VFR 30°C / 21°C 230º variable 200º to 260º 4kt >10km - Clouds and Visibility OK 1014 No Significant change ULAA 220700Z 23002MPS 200V260 CAVOK 30/21 Q1014 R08/CLRD70 NOSIG RMK QFE759/1012
VFR 30°C / 21°C 250º variable 190º to 320º 4kt >10km - Clouds and Visibility OK 1014 No Significant change ULAA 220630Z 25002MPS 190V320 CAVOK 30/21 Q1014 R26/CLRD70 NOSIG RMK QFE759/1012
VFR 29°C / 21°C 250º variable 190º to 300º 4kt >10km - Clouds and Visibility OK 1014 No Significant change ULAA 220600Z 25002MPS 190V300 CAVOK 29/21 Q1014 R26/CLRD70 NOSIG RMK QFE759/1012
VFR 28°C / 21°C 230º variable 180º to 260º 6kt >10km - Clouds and Visibility OK 1014 No Significant change ULAA 220530Z 23003MPS 180V260 CAVOK 28/21 Q1014 R08/CLRD70 NOSIG RMK QFE759/1012
VFR 27°C / 20°C 220º variable 170º to 280º 4kt >10km - Clouds and Visibility OK 1014 No Significant change ULAA 220500Z 22002MPS 170V280 CAVOK 27/20 Q1014 R26/CLRD70 NOSIG RMK QFE759/1012
VFR 26°C / 20°C 230º variable 180º to 290º 4kt >10km - Clouds and Visibility OK 1014 No Significant change ULAA 220430Z 23002MPS 180V290 CAVOK 26/20 Q1014 R26/CLRD70 NOSIG RMK QFE759/1012
VFR 25°C / 19°C 230º variable 190º to 270º 4kt >10km - Clouds and Visibility OK 1014 No Significant change ULAA 220400Z 23002MPS 190V270 CAVOK 25/19 Q1014 R26/CLRD70 NOSIG RMK QFE759/1012
VFR 22°C / 18°C 220º variable 160º to 260º 4kt >10km - Clouds and Visibility OK 1014 No Significant change ULAA 220330Z 22002MPS 160V260 CAVOK 22/18 Q1014 R26/CLRD70 NOSIG RMK QFE759/1012
VFR 23°C / 18°C 210º variable 150º to 250º 4kt >10km - Scattered Clouds 3000ft 1014 No Significant change ULAA 220300Z 21002MPS 150V250 9999 SCT030 23/18 Q1014 R26/CLRD70 NOSIG RMK QFE759/1012
VFR 21°C / 18°C variable 2kt >10km - Scattered Clouds 3000ft 1014 No Significant change ULAA 220230Z VRB01MPS 9999 SCT030 21/18 Q1014 R08/CLRD70 NOSIG RMK QFE759/1012
VFR 20°C / 17°C variable 2kt >10km - Scattered Clouds 3000ft 1014 No Significant change ULAA 220200Z VRB01MPS 9999 SCT030 20/17 Q1014 R08/CLRD70 NOSIG RMK QFE759/1013
VFR 19°C / 17°C variable 2kt >10km - Scattered Clouds 3000ft 1014 No Significant change ULAA 220130Z VRB01MPS 9999 SCT030 19/17 Q1014 R08/CLRD70 NOSIG RMK QFE759/1013
VFR 18°C / 16°C 150º variable 120º to 220º 4kt >10km - Scattered Clouds 3000ft 1014 No Significant change ULAA 220100Z 15002MPS 120V220 9999 SCT030 18/16 Q1014 R08/CLRD70 NOSIG RMK QFE759/1013
VFR 17°C / 16°C variable 2kt >10km - Scattered Clouds 3000ft 1014 No Significant change ULAA 220030Z VRB01MPS 9999 SCT030 17/16 Q1014 R08/CLRD70 NOSIG RMK QFE759/1013
VFR 16°C / 15°C variable 2kt >10km - Clouds and Visibility OK 1014 No Significant change ULAA 220000Z VRB01MPS CAVOK 16/15 Q1014 R08/CLRD70 NOSIG RMK QFE759/1013
VFR 16°C / 15°C 110º 4kt >10km - Clouds and Visibility OK 1014 No Significant change ULAA 212330Z 11002MPS CAVOK 16/15 Q1014 R08/CLRD70 NOSIG RMK QFE759/1013

VFR

27°C / 22°C

[Больше]
Ветер variable 0kt
Видимость >10km
Погода -
Облачность Scattered Clouds 1000ft
Давление 1014
Изменить No Significant change. Runway 08: Wet or puddles, 51-100% contamination with <1mm, friction coefficient 0.60.
Необработанный ULAA 221100Z 00000MPS 9999 SCT010CB 27/22 Q1014 R08/290060 NOSIG RMK QFE760/1013

VFR

25°C / 22°C

[Больше]
Ветер variable 2kt
Видимость >10km
Погода -
Облачность Scattered Clouds 1000ft
Давление 1014
Изменить No Significant change. Runway 08: Wet or puddles, 51-100% contamination with <1mm, friction coefficient 0.60.
Необработанный ULAA 221030Z VRB01MPS 9999 SCT010CB 25/22 Q1014 R08/290060 NOSIG RMK QFE760/1013

VFR

25°C / 21°C

[Больше]
Ветер 190º 4kt
Видимость >10km
Погода Thunderstorm
Облачность Vertical Visibility of 0ft.
Давление 1014
Изменить No Significant change. Runway 08: Wet or puddles, 51-100% contamination with <1mm, friction coefficient 0.60.
Необработанный ULAA 221000Z 19002MPS 9999 TS SCT013CB 25/21 Q1014 R08/290060 NOSIG RMK QFE760/1013

MVFR

25°C / 20°C

[Больше]
Ветер variable 2kt
Видимость >10km
Погода Light Thunderstorm Rain 3.00mm precipitation
Облачность Vertical Visibility of 0ft.
Давление 1014
Изменить No Significant change. Runway 08: Wet or puddles, 51-100% contamination with <1mm, friction coefficient 0.60.
Необработанный ULAA 220930Z VRB01MPS 9999 -TSRA SCT008 BKN020CB 25/20 Q1014 R08/290060 NOSIG RMK QFE759/1013

IFR

30°C / 21°C

[Больше]
Ветер 260º variable 220º to 330º 10kt Gust 19kt
Видимость >10km
Погода Light Thunderstorm Rain 3.00mm precipitation
Облачность Vertical Visibility of 0ft.
Давление 1014
Изменить No Significant change
Необработанный ULAA 220900Z 26005G10MPS 220V330 9999 -TSRA BKN006CB 30/21 Q1014 R26/CLRD70 NOSIG RMK QBB180 QFE759/1012

VFR

32°C / 21°C

[Больше]
Ветер 270º variable 240º to 340º 6kt
Видимость >10km
Погода -
Облачность Scattered Clouds 3000ft
Давление 1014
Изменить No Significant change
Необработанный ULAA 220830Z 27003MPS 240V340 9999 SCT030 32/21 Q1014 R26/CLRD70 NOSIG RMK QFE759/1012

VFR

31°C / 21°C

[Больше]
Ветер 270º variable 220º to 310º 6kt
Видимость >10km
Погода -
Облачность Few Clouds 3000ft
Давление 1014
Изменить No Significant change
Необработанный ULAA 220800Z 27003MPS 220V310 9999 FEW030 31/21 Q1014 R26/CLRD70 NOSIG RMK QFE759/1012

VFR

31°C / 21°C

[Больше]
Ветер 260º variable 190º to 320º 4kt
Видимость >10km
Погода -
Облачность Clouds and Visibility OK
Давление 1014
Изменить No Significant change
Необработанный ULAA 220730Z 26002MPS 190V320 CAVOK 31/21 Q1014 R08/CLRD70 NOSIG RMK QFE759/1012

VFR

30°C / 21°C

[Больше]
Ветер 230º variable 200º to 260º 4kt
Видимость >10km
Погода -
Облачность Clouds and Visibility OK
Давление 1014
Изменить No Significant change
Необработанный ULAA 220700Z 23002MPS 200V260 CAVOK 30/21 Q1014 R08/CLRD70 NOSIG RMK QFE759/1012

VFR

30°C / 21°C

[Больше]
Ветер 250º variable 190º to 320º 4kt
Видимость >10km
Погода -
Облачность Clouds and Visibility OK
Давление 1014
Изменить No Significant change
Необработанный ULAA 220630Z 25002MPS 190V320 CAVOK 30/21 Q1014 R26/CLRD70 NOSIG RMK QFE759/1012

VFR

29°C / 21°C

[Больше]
Ветер 250º variable 190º to 300º 4kt
Видимость >10km
Погода -
Облачность Clouds and Visibility OK
Давление 1014
Изменить No Significant change
Необработанный ULAA 220600Z 25002MPS 190V300 CAVOK 29/21 Q1014 R26/CLRD70 NOSIG RMK QFE759/1012

VFR

28°C / 21°C

[Больше]
Ветер 230º variable 180º to 260º 6kt
Видимость >10km
Погода -
Облачность Clouds and Visibility OK
Давление 1014
Изменить No Significant change
Необработанный ULAA 220530Z 23003MPS 180V260 CAVOK 28/21 Q1014 R08/CLRD70 NOSIG RMK QFE759/1012

VFR

27°C / 20°C

[Больше]
Ветер 220º variable 170º to 280º 4kt
Видимость >10km
Погода -
Облачность Clouds and Visibility OK
Давление 1014
Изменить No Significant change
Необработанный ULAA 220500Z 22002MPS 170V280 CAVOK 27/20 Q1014 R26/CLRD70 NOSIG RMK QFE759/1012

VFR

26°C / 20°C

[Больше]
Ветер 230º variable 180º to 290º 4kt
Видимость >10km
Погода -
Облачность Clouds and Visibility OK
Давление 1014
Изменить No Significant change
Необработанный ULAA 220430Z 23002MPS 180V290 CAVOK 26/20 Q1014 R26/CLRD70 NOSIG RMK QFE759/1012

VFR

25°C / 19°C

[Больше]
Ветер 230º variable 190º to 270º 4kt
Видимость >10km
Погода -
Облачность Clouds and Visibility OK
Давление 1014
Изменить No Significant change
Необработанный ULAA 220400Z 23002MPS 190V270 CAVOK 25/19 Q1014 R26/CLRD70 NOSIG RMK QFE759/1012

VFR

22°C / 18°C

[Больше]
Ветер 220º variable 160º to 260º 4kt
Видимость >10km
Погода -
Облачность Clouds and Visibility OK
Давление 1014
Изменить No Significant change
Необработанный ULAA 220330Z 22002MPS 160V260 CAVOK 22/18 Q1014 R26/CLRD70 NOSIG RMK QFE759/1012

VFR

23°C / 18°C

[Больше]
Ветер 210º variable 150º to 250º 4kt
Видимость >10km
Погода -
Облачность Scattered Clouds 3000ft
Давление 1014
Изменить No Significant change
Необработанный ULAA 220300Z 21002MPS 150V250 9999 SCT030 23/18 Q1014 R26/CLRD70 NOSIG RMK QFE759/1012

VFR

21°C / 18°C

[Больше]
Ветер variable 2kt
Видимость >10km
Погода -
Облачность Scattered Clouds 3000ft
Давление 1014
Изменить No Significant change
Необработанный ULAA 220230Z VRB01MPS 9999 SCT030 21/18 Q1014 R08/CLRD70 NOSIG RMK QFE759/1012

VFR

20°C / 17°C

[Больше]
Ветер variable 2kt
Видимость >10km
Погода -
Облачность Scattered Clouds 3000ft
Давление 1014
Изменить No Significant change
Необработанный ULAA 220200Z VRB01MPS 9999 SCT030 20/17 Q1014 R08/CLRD70 NOSIG RMK QFE759/1013

VFR

19°C / 17°C

[Больше]
Ветер variable 2kt
Видимость >10km
Погода -
Облачность Scattered Clouds 3000ft
Давление 1014
Изменить No Significant change
Необработанный ULAA 220130Z VRB01MPS 9999 SCT030 19/17 Q1014 R08/CLRD70 NOSIG RMK QFE759/1013

VFR

18°C / 16°C

[Больше]
Ветер 150º variable 120º to 220º 4kt
Видимость >10km
Погода -
Облачность Scattered Clouds 3000ft
Давление 1014
Изменить No Significant change
Необработанный ULAA 220100Z 15002MPS 120V220 9999 SCT030 18/16 Q1014 R08/CLRD70 NOSIG RMK QFE759/1013

VFR

17°C / 16°C

[Больше]
Ветер variable 2kt
Видимость >10km
Погода -
Облачность Scattered Clouds 3000ft
Давление 1014
Изменить No Significant change
Необработанный ULAA 220030Z VRB01MPS 9999 SCT030 17/16 Q1014 R08/CLRD70 NOSIG RMK QFE759/1013

VFR

16°C / 15°C

[Больше]
Ветер variable 2kt
Видимость >10km
Погода -
Облачность Clouds and Visibility OK
Давление 1014
Изменить No Significant change
Необработанный ULAA 220000Z VRB01MPS CAVOK 16/15 Q1014 R08/CLRD70 NOSIG RMK QFE759/1013

VFR

16°C / 15°C

[Больше]
Ветер 110º 4kt
Видимость >10km
Погода -
Облачность Clouds and Visibility OK
Давление 1014
Изменить No Significant change
Необработанный ULAA 212330Z 11002MPS CAVOK 16/15 Q1014 R08/CLRD70 NOSIG RMK QFE759/1013

TAF для 64.6°С 40.72°В (ULAA)

From till


From till Wind 230º 6kt. Visibility 10km or more. Scattered Clouds 1600ft.
Temporarly from till Wind 270º 8kt. Gust 27kt. Visibility 2000m. Thunderstorm Rain Mist . Broken Clouds 500ft. Broken Clouds 1100ft.
Temporarly from till Wind variable 2kt. Visibility 498.895m. Fog . Few Clouds 200ft.
Temporarly from till Wind 250º 8kt. Gust 27kt. Visibility 6000m. Light Thunderstorm Rain . Few Clouds 700ft. Broken Clouds 1600ft.

Необработанный: TAF ULAA 221100Z 2212/2312 23003MPS 9999 SCT016CB TEMPO 2212/2221 27004G14MPS 2000 TSRA BR BKN005 BKN011CB TEMPO 2221/2305 VRB01MPS 0500 FG FEW002 TEMPO 2305/2312 25004G14MPS 6000 -TSRA FEW007 BKN016CB

Текущие спутниковые изображения и снимки дождя для 64.6°С 40.72°В

Указатель местности находится на 64.6°С 40.72°В. [Больше]

Спутниковое изображение в реальном времени сочетает в себе видимый свет в дневное время с инфракрасным излучением в ночное время. Ночью изображение получается не темным, так как инфракрасное излучение может обнаружить разницу температур. К сожалению, низкие облака и туман трудно отличить от температуры у поверхности земли и поэтому могут быть почти незаметны ночью. Спутниковые снимки Meteosat для Европы обновляются каждые 5 минут в режиме реального времени.Снимки GOES-16/GOES-17 (Северная и Южная Америка) и Химавари (Азия) обновляются каждые 10 минут.

Копирайт 2021 EUMETSAT / meteoblue. / Копирайт 2021 meteoblue

Радарный и сверхкраткосрочный прогноз осадков для 64.6°С 40.72°В

Индикатор местности находится на 64.6°С 40.72°В. Анимация показывает радар осадков за последний час, а также прогноз погоды для1h. Умеренная морось или легкий снег могут быть незаметны для радара. Интенсивность осадковмаркированна цветной кодировкой, начиная со светло-синего и заканчивая темно-пурпурным.